Time;durP1;ratioP1;P1;durP2;ratioP2;P2;SDS_P1;SDS_P2;PMS_P1;PMS_P2;Temp;Humidity;BMP_temperature;BMP_pressure;BME280_temperature;BME280_humidity;BME280_pressure;Samples;Min_cycle;Max_cycle;Signal;HPM_P1;HPM_P2
2021/05/10 00:00:35;;;;;;;5.53;4.95;;;;;;;9.68;63.92;98771.52;2250547;79;23195;-82
2021/05/10 00:03:44;;;;;;;6.17;4.67;;;;;;;9.61;64.34;98769.29;2259396;79;22858;-82
2021/05/10 00:06:57;;;;;;;6.50;4.42;;;;;;;9.58;64.37;98768.30;2259429;79;22955;-82
2021/05/10 00:10:10;;;;;;;5.53;4.37;;;;;;;9.55;64.40;98773.89;2210572;79;22842;-81
2021/05/10 00:13:24;;;;;;;8.00;4.65;;;;;;;9.49;64.48;98769.83;2259267;79;22956;-82
2021/05/10 00:16:37;;;;;;;4.60;3.77;;;;;;;9.43;65.20;98776.57;2250527;79;22858;-79
2021/05/10 00:19:52;;;;;;;5.85;5.22;;;;;;;9.33;65.15;98766.33;2252844;79;22585;-80
2021/05/10 00:23:05;;;;;;;5.30;4.75;;;;;;;9.27;65.96;98764.38;2259338;79;22805;-82
2021/05/10 00:26:15;;;;;;;5.35;4.60;;;;;;;9.23;65.32;98753.12;2250618;79;22984;-79
2021/05/10 00:29:29;;;;;;;5.00;4.40;;;;;;;9.17;65.43;98758.55;2298843;77;23418;-81
2021/05/10 00:32:43;;;;;;;4.87;4.03;;;;;;;9.16;65.57;98757.41;2259277;79;23365;-79
2021/05/10 00:35:57;;;;;;;4.22;3.90;;;;;;;9.14;66.07;98756.25;2210168;79;22858;-80
2021/05/10 00:39:05;;;;;;;4.35;4.05;;;;;;;9.18;65.99;98766.70;2259554;79;22949;-82
2021/05/10 00:42:18;;;;;;;5.37;4.37;;;;;;;9.23;65.87;98756.55;2272637;77;23426;-80
2021/05/10 00:45:31;;;;;;;4.55;4.15;;;;;;;9.28;65.81;98755.56;2259436;79;22399;-80
2021/05/10 00:48:44;;;;;;;4.37;3.83;;;;;;;9.29;65.92;98755.06;2298618;77;23032;-83
2021/05/10 00:51:56;;;;;;;6.00;4.15;;;;;;;9.30;65.82;98754.89;2210497;79;22940;-81
2021/05/10 00:55:10;;;;;;;4.00;3.55;;;;;;;9.28;65.91;98746.91;2210267;79;22856;-82
2021/05/10 00:58:23;;;;;;;4.50;3.95;;;;;;;9.27;65.77;98742.67;2210665;79;23374;-80
2021/05/10 01:01:36;;;;;;;3.90;3.25;;;;;;;9.24;65.71;98742.52;2250571;79;22832;-81
2021/05/10 01:04:48;;;;;;;5.05;4.65;;;;;;;9.23;65.70;98740.87;2215953;79;23089;-82
2021/05/10 01:08:01;;;;;;;4.55;3.75;;;;;;;9.23;65.56;98753.12;2298678;77;22644;-80
2021/05/10 01:11:15;;;;;;;6.85;5.33;;;;;;;9.24;65.50;98741.22;2210302;79;22897;-80
2021/05/10 01:14:27;;;;;;;4.17;3.77;;;;;;;9.26;65.33;98741.86;2273008;77;22630;-80
2021/05/10 01:17:37;;;;;;;4.08;3.77;;;;;;;9.25;65.35;98742.03;2253085;79;23020;-80
2021/05/10 01:20:49;;;;;;;4.60;4.20;;;;;;;9.21;65.34;98737.62;2210698;79;22901;-83
2021/05/10 01:24:02;;;;;;;4.65;4.20;;;;;;;9.17;65.45;98742.87;2272687;77;23426;-82
2021/05/10 01:27:16;;;;;;;4.20;3.80;;;;;;;9.12;65.42;98737.33;2210543;79;23343;-80
2021/05/10 01:30:31;;;;;;;4.40;3.50;;;;;;;9.08;65.45;98738.66;2272703;77;23010;-80
2021/05/10 01:33:43;;;;;;;5.15;4.33;;;;;;;9.02;65.54;98731.00;2259462;79;22821;-79
2021/05/10 01:37:04;;;;;;;3.62;3.33;;;;;;;8.96;65.60;98734.31;2215954;79;22848;-79
2021/05/10 01:40:17;;;;;;;4.12;3.70;;;;;;;8.93;65.50;98733.81;2272529;77;23324;-80
2021/05/10 01:43:31;;;;;;;5.83;3.62;;;;;;;8.93;65.48;98733.81;2210239;79;22901;-79
2021/05/10 01:46:45;;;;;;;6.28;3.60;;;;;;;8.92;65.49;98730.39;2259312;79;22957;-79
2021/05/10 01:49:59;;;;;;;3.83;3.47;;;;;;;8.90;65.70;98730.23;2272715;77;23366;-79
2021/05/10 01:53:12;;;;;;;4.90;3.67;;;;;;;8.86;65.63;98740.19;2272750;77;23454;-82
2021/05/10 01:56:25;;;;;;;3.87;3.58;;;;;;;8.80;65.91;98736.47;2272880;77;23458;-81
2021/05/10 01:59:39;;;;;;;3.58;3.27;;;;;;;8.73;65.82;98739.42;2250487;79;22881;-80
2021/05/10 02:02:51;;;;;;;4.30;3.72;;;;;;;8.66;65.87;98734.53;2272860;77;22598;-79
2021/05/10 02:06:04;;;;;;;5.05;4.65;;;;;;;8.60;66.02;98738.32;2210556;79;22880;-80
2021/05/10 02:09:18;;;;;;;5.60;5.08;;;;;;;8.53;66.59;98734.25;2210363;79;23049;-81
2021/05/10 02:12:31;;;;;;;4.87;4.47;;;;;;;8.46;66.43;98732.78;2250403;79;22867;-79
2021/05/10 02:15:44;;;;;;;5.28;4.17;;;;;;;8.43;66.19;98733.13;2210600;79;23049;-81
2021/05/10 02:18:58;;;;;;;4.25;3.85;;;;;;;8.44;66.29;98746.48;2347480;76;22853;-81
2021/05/10 02:22:12;;;;;;;4.90;3.65;;;;;;;8.43;66.17;98744.86;2210652;79;22575;-81
2021/05/10 02:25:25;;;;;;;4.92;3.80;;;;;;;8.40;66.23;98753.00;2210453;79;22736;-81
2021/05/10 02:28:38;;;;;;;8.25;5.42;;;;;;;8.34;66.56;98754.13;2210425;79;22890;-80
2021/05/10 02:31:51;;;;;;;5.87;5.25;;;;;;;8.26;66.64;98751.84;2210564;79;22022;-82
2021/05/10 02:35:05;;;;;;;4.97;4.45;;;;;;;8.17;66.85;98750.22;2210570;79;22613;-79
2021/05/10 02:38:18;;;;;;;4.53;4.10;;;;;;;8.10;67.01;98753.64;2210372;79;22884;-81
2021/05/10 02:41:33;;;;;;;7.45;4.53;;;;;;;8.05;66.93;98752.02;2259379;79;22906;-79
2021/05/10 02:44:46;;;;;;;6.92;5.37;;;;;;;8.04;67.03;98756.88;2272705;77;23028;-82
2021/05/10 02:47:59;;;;;;;6.30;5.17;;;;;;;8.02;67.03;98760.96;2210631;79;23058;-81
2021/05/10 02:51:12;;;;;;;5.25;4.78;;;;;;;7.99;67.04;98759.50;2210484;79;23057;-80
2021/05/10 02:54:25;;;;;;;5.10;4.45;;;;;;;7.98;67.12;98760.48;2259494;79;22004;-82
2021/05/10 02:57:39;;;;;;;3.90;3.60;;;;;;;7.96;67.12;98759.84;2210549;79;23036;-80
2021/05/10 03:00:52;;;;;;;4.00;3.60;;;;;;;7.90;67.19;98760.47;2210491;79;23356;-80
2021/05/10 03:04:06;;;;;;;4.12;3.75;;;;;;;7.83;67.35;98757.36;2298530;77;23313;-82
2021/05/10 03:07:15;;;;;;;3.95;3.65;;;;;;;7.82;67.65;98765.67;2298774;77;22887;-80
2021/05/10 03:10:28;;;;;;;4.40;4.10;;;;;;;7.96;67.54;98770.75;2215949;79;23457;-80
2021/05/10 03:13:41;;;;;;;6.62;4.95;;;;;;;8.18;67.31;98770.59;2210539;79;23464;-79
2021/05/10 03:16:55;;;;;;;5.53;5.12;;;;;;;8.45;66.97;98771.59;2210279;79;22517;-81
2021/05/10 03:20:08;;;;;;;5.47;4.92;;;;;;;8.76;66.42;98774.31;2210517;79;23014;-82
2021/05/10 03:23:17;;;;;;;5.33;4.83;;;;;;;9.16;65.86;98771.29;2259392;79;22815;-80
2021/05/10 03:26:30;;;;;;;5.35;4.40;;;;;;;9.60;65.26;98778.59;2272944;77;22990;-81
2021/05/10 03:29:39;;;;;;;6.58;4.33;;;;;;;9.94;64.81;98771.20;2298750;77;23493;-81
2021/05/10 03:32:53;;;;;;;4.90;3.75;;;;;;;10.39;63.87;98774.00;2252960;79;23024;-82
2021/05/10 03:36:06;;;;;;;5.92;4.33;;;;;;;10.79;63.02;98773.64;2259303;79;21961;-80
2021/05/10 03:39:20;;;;;;;5.28;4.20;;;;;;;11.28;62.04;98768.34;2210234;79;23043;-80
2021/05/10 03:42:34;;;;;;;4.42;4.12;;;;;;;11.74;60.95;98772.83;2210265;79;23488;-80
2021/05/10 03:45:47;;;;;;;5.28;4.80;;;;;;;12.35;59.78;98769.81;2210581;79;22934;-81
2021/05/10 03:49:00;;;;;;;6.05;5.37;;;;;;;12.88;57.79;98767.55;2210392;79;23004;-81
2021/05/10 03:52:13;;;;;;;5.08;4.58;;;;;;;13.43;57.51;98761.39;2215685;79;23052;-79
2021/05/10 03:55:27;;;;;;;4.58;4.17;;;;;;;14.01;56.06;98763.61;2259183;79;22945;-81
2021/05/10 03:58:37;;;;;;;5.45;4.87;;;;;;;14.50;55.67;98758.79;2210073;79;23049;-80
2021/05/10 04:01:51;;;;;;;3.90;3.65;;;;;;;15.20;55.07;98772.78;2210199;79;22910;-81
2021/05/10 04:05:11;;;;;;;3.25;3.02;;;;;;;15.65;51.29;98772.33;2250550;79;22841;-81
2021/05/10 04:08:42;;;;;;;3.17;2.90;;;;;;;16.01;51.19;98760.36;2259325;79;22447;-80
2021/05/10 04:15:16;;;;;;;4.78;4.37;;;;;;;16.58;48.20;98765.10;2210728;79;22869;-80
2021/05/10 04:18:26;;;;;;;4.12;3.80;;;;;;;16.76;46.68;98759.37;2272900;77;22998;-80
2021/05/10 04:21:39;;;;;;;4.97;4.58;;;;;;;17.12;45.71;98758.30;2210633;79;22906;-80
2021/05/10 04:24:52;;;;;;;3.52;3.22;;;;;;;17.43;43.61;98762.61;2272956;77;22967;-80
2021/05/10 04:28:05;;;;;;;4.03;3.62;;;;;;;17.92;44.93;98762.89;2210635;79;23359;-80
2021/05/10 04:31:18;;;;;;;3.37;2.87;;;;;;;18.43;43.33;98763.66;2215922;79;22947;-80
2021/05/10 04:34:31;;;;;;;3.15;2.85;;;;;;;18.71;42.52;98761.69;2210433;79;22905;-81
2021/05/10 04:37:45;;;;;;;3.45;2.70;;;;;;;19.26;41.77;98761.28;2252837;79;22161;-80
2021/05/10 04:40:59;;;;;;;2.45;2.25;;;;;;;19.74;40.52;98760.11;2250724;79;23278;-80
2021/05/10 04:44:08;;;;;;;3.83;2.55;;;;;;;20.07;40.11;98763.89;2210641;79;22895;-81
2021/05/10 04:47:22;;;;;;;2.67;2.30;;;;;;;20.28;39.57;98761.86;2257847;77;23476;-78
2021/05/10 04:50:34;;;;;;;2.20;1.85;;;;;;;20.40;37.90;98765.79;2210668;79;23005;-82
2021/05/10 04:53:48;;;;;;;2.75;2.33;;;;;;;20.11;38.60;98771.14;2253052;79;23504;-80
2021/05/10 04:57:01;;;;;;;2.10;2.00;;;;;;;19.87;38.26;98768.33;2250562;79;22698;-82
2021/05/10 05:00:13;;;;;;;2.60;2.40;;;;;;;19.50;38.11;98773.18;2210638;79;23064;-80
2021/05/10 05:03:27;;;;;;;2.58;2.35;;;;;;;19.15;38.58;98778.56;2210439;79;23122;-79
2021/05/10 05:06:41;;;;;;;2.83;2.60;;;;;;;18.81;38.55;98770.39;2215942;79;22226;-80
2021/05/10 05:09:55;;;;;;;2.55;2.35;;;;;;;18.54;39.06;98769.20;2298772;77;23329;-81
2021/05/10 05:13:09;;;;;;;3.95;2.98;;;;;;;18.28;39.34;98775.20;2210893;79;22989;-80
2021/05/10 05:16:19;;;;;;;2.45;2.35;;;;;;;18.00;39.82;98782.97;2252369;79;22454;-86
2021/05/10 05:19:33;;;;;;;3.62;2.60;;;;;;;17.74;40.55;98771.72;2250520;79;23019;-86
2021/05/10 05:22:47;;;;;;;3.90;2.62;;;;;;;17.51;40.86;98776.87;2210546;79;23003;-82
2021/05/10 05:25:58;;;;;;;2.77;2.67;;;;;;;17.32;41.22;98777.40;2250339;79;21810;-82
2021/05/10 05:29:10;;;;;;;4.03;3.50;;;;;;;17.26;41.66;98786.21;2252893;79;22770;-81
2021/05/10 05:32:25;;;;;;;5.20;2.98;;;;;;;17.19;41.88;98782.34;2210357;79;23407;-81
2021/05/10 05:35:44;;;;;;;3.02;2.72;;;;;;;17.16;42.24;98785.40;2209295;79;24088;-82
2021/05/10 05:38:59;;;;;;;3.45;3.17;;;;;;;17.04;42.09;98769.45;2296289;77;22806;-87
2021/05/10 05:42:08;;;;;;;3.55;2.70;;;;;;;16.97;42.93;98782.45;2304724;76;22328;-85
2021/05/10 05:45:24;;;;;;;3.50;2.60;;;;;;;17.05;43.36;98770.27;2210453;79;23289;-86
2021/05/10 05:48:38;;;;;;;11.60;4.62;;;;;;;17.12;42.98;98782.11;2296344;77;22825;-82
2021/05/10 05:51:51;;;;;;;6.50;3.60;;;;;;;17.15;43.28;98779.82;2210474;79;22909;-83
2021/05/10 05:55:06;;;;;;;3.12;2.92;;;;;;;17.20;43.46;98780.50;2216035;79;22883;-83
2021/05/10 05:58:19;;;;;;;3.80;2.90;;;;;;;17.28;43.97;98774.89;2210331;79;23062;-80
2021/05/10 06:01:32;;;;;;;5.10;3.08;;;;;;;17.31;43.85;98775.78;2259358;79;22953;-82
2021/05/10 06:04:46;;;;;;;2.72;2.52;;;;;;;17.38;44.07;98776.52;2210435;79;23444;-81
2021/05/10 06:07:55;;;;;;;2.77;2.50;;;;;;;17.36;43.88;98781.20;2210623;79;23041;-79
2021/05/10 06:11:09;;;;;;;5.17;3.17;;;;;;;17.41;43.81;98779.23;2210052;79;23020;-81
2021/05/10 06:14:22;;;;;;;2.35;2.15;;;;;;;17.43;44.26;98771.36;2272906;77;22969;-83
2021/05/10 06:17:35;;;;;;;3.15;2.87;;;;;;;17.52;43.71;98772.67;2216073;79;23033;-81
2021/05/10 06:20:48;;;;;;;3.55;2.47;;;;;;;17.56;43.81;98766.44;2259372;79;22918;-81
2021/05/10 06:24:01;;;;;;;1.95;1.82;;;;;;;17.69;43.48;98768.09;2250686;79;22986;-82
2021/05/10 06:27:14;;;;;;;2.85;2.62;;;;;;;17.73;43.18;98771.41;2299102;77;23089;-84
2021/05/10 06:30:29;;;;;;;5.10;2.85;;;;;;;17.83;43.45;98771.70;2210294;79;22650;-81
2021/05/10 06:33:39;;;;;;;6.55;2.87;;;;;;;17.89;43.16;98766.81;2216014;79;23571;-82
2021/05/10 06:36:53;;;;;;;2.45;2.27;;;;;;;17.89;43.19;98766.81;2210404;79;23155;-82
2021/05/10 06:40:05;;;;;;;4.03;2.42;;;;;;;17.84;42.42;98763.24;2216113;79;22891;-81
2021/05/10 06:43:18;;;;;;;2.60;2.40;;;;;;;17.83;43.25;98763.76;2250540;79;22996;-79
2021/05/10 06:46:28;;;;;;;2.60;2.40;;;;;;;17.91;43.26;98765.26;2272778;77;23496;-80
2021/05/10 06:49:41;;;;;;;2.72;2.00;;;;;;;17.98;42.96;98755.90;2210390;79;22904;-82
2021/05/10 06:52:53;;;;;;;3.27;2.52;;;;;;;18.05;43.61;98749.48;2210627;79;23363;-84
2021/05/10 06:56:09;;;;;;;3.22;2.10;;;;;;;18.07;43.35;98750.05;2259336;79;22253;-80
2021/05/10 06:59:23;;;;;;;3.25;2.35;;;;;;;18.18;42.75;98741.83;2215808;79;23060;-82
2021/05/10 07:02:36;;;;;;;4.75;2.20;;;;;;;18.21;42.92;98751.19;2210088;79;23029;-81
2021/05/10 07:05:45;;;;;;;4.03;3.10;;;;;;;18.21;42.87;98752.00;2347626;76;23002;-79
2021/05/10 07:09:00;;;;;;;2.65;2.45;;;;;;;18.29;43.56;98750.34;2215868;79;23052;-81
2021/05/10 07:12:13;;;;;;;6.20;3.15;;;;;;;18.35;42.71;98754.71;2250596;79;23385;-81
2021/05/10 07:15:26;;;;;;;2.80;1.80;;;;;;;18.39;42.72;98752.43;2210421;79;22891;-81
2021/05/10 07:18:40;;;;;;;3.90;2.05;;;;;;;18.43;42.44;98739.80;2259353;79;22404;-79
2021/05/10 07:21:53;;;;;;;4.28;2.00;;;;;;;18.48;42.60;98743.10;2259355;79;22914;-80
2021/05/10 07:25:05;;;;;;;6.42;2.83;;;;;;;18.53;42.07;98743.20;2272792;77;22522;-84
2021/05/10 07:28:15;;;;;;;3.77;2.30;;;;;;;18.60;42.36;98745.23;2341451;76;22905;-85
2021/05/10 07:31:28;;;;;;;3.22;2.10;;;;;;;18.69;42.54;98745.72;2252976;79;23425;-82
2021/05/10 07:34:43;;;;;;;4.58;2.52;;;;;;;18.73;42.12;98742.36;2298816;77;22287;-83
2021/05/10 07:37:56;;;;;;;25.88;4.62;;;;;;;18.74;42.70;98743.17;2298643;77;22672;-83
2021/05/10 07:41:10;;;;;;;8.30;2.92;;;;;;;18.85;43.53;98749.02;2309395;77;22755;-84
2021/05/10 07:44:23;;;;;;;3.95;2.20;;;;;;;18.96;43.29;98755.34;2210498;79;23078;-84
2021/05/10 07:47:36;;;;;;;7.25;1.92;;;;;;;18.96;42.14;98753.49;2342060;76;23260;-83
2021/05/10 07:50:46;;;;;;;8.10;2.37;;;;;;;18.99;42.51;98760.98;2273246;77;22577;-84
2021/05/10 07:54:01;;;;;;;74.77;6.85;;;;;;;19.09;42.51;98756.41;2258050;77;23025;-84
2021/05/10 07:57:14;;;;;;;65.65;6.55;;;;;;;19.15;42.21;98761.31;2250554;79;23330;-83
2021/05/10 08:00:29;;;;;;;3.55;2.12;;;;;;;19.23;42.58;98758.30;2272741;77;22870;-83
2021/05/10 08:03:45;;;;;;;2.98;2.50;;;;;;;19.27;41.88;98752.27;2210464;79;22886;-81
2021/05/10 08:06:58;;;;;;;10.72;3.27;;;;;;;19.29;41.97;98752.87;2298705;77;22984;-82
2021/05/10 08:10:11;;;;;;;17.37;3.33;;;;;;;19.44;42.93;98747.03;2272739;77;23488;-81
2021/05/10 08:13:25;;;;;;;104.58;11.00;;;;;;;19.58;42.50;98743.63;2210509;78;23131;-82
2021/05/10 08:16:39;;;;;;;44.20;5.62;;;;;;;19.72;42.69;98734.84;2272712;77;22505;-82
2021/05/10 08:19:51;;;;;;;31.65;4.50;;;;;;;19.81;40.85;98736.06;2272829;77;23008;-85
2021/05/10 08:23:05;;;;;;;22.93;3.67;;;;;;;19.87;40.90;98747.08;2210424;79;22918;-86
2021/05/10 08:26:14;;;;;;;11.50;2.37;;;;;;;19.90;40.41;98743.94;2347323;76;22945;-85
2021/05/10 08:29:26;;;;;;;9.50;2.87;;;;;;;19.93;40.67;98737.33;2196607;79;28111;-85
2021/05/10 08:32:37;;;;;;;145.92;13.40;;;;;;;20.08;39.36;98736.27;2210153;79;22388;-85
2021/05/10 08:35:51;;;;;;;56.28;6.80;;;;;;;20.09;39.93;98732.56;2252945;78;22897;-84
2021/05/10 08:39:08;;;;;;;13.30;2.90;;;;;;;20.16;40.58;98736.68;2216004;79;23069;-84
2021/05/10 08:42:21;;;;;;;35.08;5.15;;;;;;;20.30;40.45;98744.33;2272727;77;22987;-84
2021/05/10 08:45:34;;;;;;;19.37;3.17;;;;;;;20.39;40.73;98741.55;2216005;79;22994;-88
2021/05/10 08:48:47;;;;;;;11.95;3.10;;;;;;;20.50;40.63;98742.56;2210532;79;22013;-85
2021/05/10 08:51:58;;;;;;;3.73;1.70;;;;;;;20.57;40.59;98741.33;2230728;79;27957;-86
2021/05/10 08:55:12;;;;;;;1.87;1.35;;;;;;;20.72;39.33;98747.41;2259139;79;22785;-85
2021/05/10 08:58:22;;;;;;;10.65;2.95;;;;;;;20.68;37.94;98744.44;2298527;77;23032;-86
2021/05/10 09:01:36;;;;;;;3.42;1.47;;;;;;;20.71;39.33;98745.27;2259196;79;22967;-86
2021/05/10 09:04:50;;;;;;;9.65;1.47;;;;;;;20.72;38.65;98736.23;2272649;77;22704;-79
2021/05/10 09:08:03;;;;;;;2.83;1.40;;;;;;;20.77;39.15;98726.20;2210656;79;22051;-84
2021/05/10 09:11:19;;;;;;;1.62;1.37;;;;;;;20.82;38.98;98717.48;2208599;79;22899;-82
2021/05/10 09:14:34;;;;;;;7.25;2.80;;;;;;;20.89;38.22;98715.45;2250522;79;23315;-81
2021/05/10 09:17:44;;;;;;;2.87;1.12;;;;;;;20.94;39.25;98711.53;2210572;79;22913;-84
2021/05/10 09:20:58;;;;;;;1.98;1.65;;;;;;;20.95;36.50;98713.14;2210363;79;23001;-83
2021/05/10 09:24:09;;;;;;;2.60;1.47;;;;;;;20.95;37.23;98712.62;2284686;76;28057;-82
2021/05/10 09:27:26;;;;;;;1.30;1.07;;;;;;;21.17;37.89;98705.95;2250419;79;23145;-81
2021/05/10 09:30:38;;;;;;;1.32;1.10;;;;;;;21.21;39.33;98703.59;2298319;77;22979;-81
2021/05/10 09:33:51;;;;;;;1.27;1.12;;;;;;;21.25;36.68;98704.19;2210408;79;22485;-89
2021/05/10 09:37:01;;;;;;;1.50;1.17;;;;;;;21.22;36.84;98704.70;2347396;76;22982;-88
2021/05/10 09:40:12;;;;;;;4.80;1.60;;;;;;;21.19;36.83;98693.72;2279210;77;28125;-87
2021/05/10 09:43:26;;;;;;;2.55;1.22;;;;;;;21.35;37.57;98694.20;2216053;79;23051;-83
2021/05/10 09:46:37;;;;;;;6.47;1.80;;;;;;;21.41;37.11;98696.41;2250380;79;22137;-87
2021/05/10 09:49:51;;;;;;;2.70;1.60;;;;;;;21.46;37.33;98698.58;2193194;79;23386;-86
2021/05/10 09:53:05;;;;;;;2.95;2.17;;;;;;;21.54;39.68;98692.02;2197933;79;22886;-88
2021/05/10 09:56:25;;;;;;;5.97;4.67;;;;;;;21.67;39.99;98695.63;2248468;79;23584;-83
2021/05/10 09:59:30;;;;;;;13.05;8.00;;;;;;;21.78;39.30;98693.86;2174412;80;28370;-80
2021/05/10 10:02:42;;;;;;;3.58;3.25;;;;;;;22.07;40.12;98697.06;2210569;79;22500;-85
2021/05/10 10:05:56;;;;;;;3.15;2.35;;;;;;;22.19;39.81;98688.35;2216060;79;22899;-84
2021/05/10 10:09:10;;;;;;;2.25;2.02;;;;;;;22.30;40.22;98684.69;2272669;77;22722;-85
2021/05/10 10:12:23;;;;;;;2.42;2.22;;;;;;;22.40;38.77;98686.12;2272928;77;23005;-84
2021/05/10 10:15:37;;;;;;;3.05;1.40;;;;;;;22.45;38.68;98684.00;2258022;77;23319;-86
2021/05/10 10:18:48;;;;;;;2.67;0.80;;;;;;;22.49;37.83;98688.28;2298756;77;22566;-84
2021/05/10 10:21:57;;;;;;;1.75;0.95;;;;;;;22.50;36.47;98674.71;2215854;79;23040;-84
2021/05/10 10:25:15;;;;;;;2.45;0.78;;;;;;;22.48;37.40;98676.81;2216064;79;23051;-86
2021/05/10 10:28:28;;;;;;;1.12;1.05;;;;;;;22.54;37.97;98672.32;2250527;79;24051;-87
2021/05/10 10:31:42;;;;;;;1.70;1.00;;;;;;;22.60;36.60;98669.43;2252913;79;23268;-88
2021/05/10 10:34:52;;;;;;;3.58;1.70;;;;;;;22.66;36.77;98661.70;2231005;79;29839;-83
2021/05/10 10:38:05;;;;;;;3.85;0.93;;;;;;;22.83;36.33;98667.39;2216047;79;23021;-79
2021/05/10 10:41:19;;;;;;;4.42;1.00;;;;;;;22.84;35.77;98660.99;2211863;79;22869;-80
2021/05/10 10:44:34;;;;;;;2.90;1.25;;;;;;;22.86;34.30;98663.73;2295819;77;22821;-83
2021/05/10 10:47:50;;;;;;;3.60;1.37;;;;;;;22.88;34.10;98662.13;2273703;77;22888;-83
2021/05/10 10:51:03;;;;;;;1.90;0.90;;;;;;;22.83;34.28;98666.86;2273815;77;22851;-82
2021/05/10 10:54:13;;;;;;;1.30;1.10;;;;;;;22.90;35.08;98670.67;2191826;79;28181;-85
2021/05/10 10:57:25;;;;;;;2.15;1.17;;;;;;;23.10;34.03;98669.41;2233993;79;28262;-84
2021/05/10 11:00:37;;;;;;;1.32;1.17;;;;;;;23.28;34.51;98668.93;2250668;79;22881;-84
2021/05/10 11:03:52;;;;;;;2.30;0.82;;;;;;;23.26;34.11;98666.27;2259356;79;23372;-83
2021/05/10 11:07:06;;;;;;;1.12;0.90;;;;;;;23.22;33.63;98661.16;2210783;79;22896;-83
2021/05/10 11:10:20;;;;;;;1.85;1.10;;;;;;;23.21;34.65;98659.56;2259291;79;22918;-84
2021/05/10 11:13:33;;;;;;;3.83;0.98;;;;;;;23.23;34.29;98653.44;2272807;77;22849;-83
2021/05/10 11:16:47;;;;;;;2.70;1.00;;;;;;;23.28;34.21;98648.90;2222529;79;22840;-84
2021/05/10 11:19:57;;;;;;;1.25;1.00;;;;;;;23.33;33.42;98648.12;2250560;79;22996;-85
2021/05/10 11:23:07;;;;;;;2.10;0.90;;;;;;;23.36;32.71;98650.80;2259369;79;23433;-85
2021/05/10 11:26:21;;;;;;;0.68;0.68;;;;;;;23.41;32.98;98656.96;2209969;79;22873;-84
2021/05/10 11:29:34;;;;;;;2.92;0.95;;;;;;;23.47;33.37;98655.08;2251965;77;28335;-85
2021/05/10 11:32:49;;;;;;;3.20;0.80;;;;;;;23.69;34.01;98656.23;2211951;79;22776;-80
2021/05/10 11:36:03;;;;;;;5.97;1.07;;;;;;;23.73;32.27;98654.61;2255232;77;23163;-85
2021/05/10 11:39:20;;;;;;;2.20;1.00;;;;;;;23.72;33.16;98653.81;2274673;77;22510;-85
2021/05/10 11:42:34;;;;;;;1.42;0.98;;;;;;;23.75;32.71;98640.44;2273822;77;22982;-83
2021/05/10 11:45:49;;;;;;;1.20;1.20;;;;;;;23.81;32.50;98643.40;2267927;78;22597;-84
2021/05/10 11:49:13;;;;;;;1.32;1.10;;;;;;;23.79;31.75;98654.90;2258607;77;22893;-85
2021/05/10 11:52:30;;;;;;;6.03;1.27;;;;;;;23.79;32.13;98636.98;2296018;76;22799;-85
2021/05/10 11:55:40;;;;;;;3.22;1.12;;;;;;;23.86;32.65;98636.70;2215974;79;22961;-84
2021/05/10 11:58:59;;;;;;;6.17;1.52;;;;;;;23.91;32.09;98638.58;2210490;79;23009;-86
2021/05/10 12:02:11;;;;;;;4.08;1.62;;;;;;;23.92;32.20;98628.16;2251024;77;23504;-85
2021/05/10 12:05:25;;;;;;;1.82;1.02;;;;;;;23.90;31.84;98628.42;2208895;79;24134;-87
2021/05/10 12:08:48;;;;;;;0.93;0.93;;;;;;;23.93;32.05;98623.88;2270909;78;27662;-86
2021/05/10 12:12:08;;;;;;;1.92;0.62;;;;;;;23.94;31.07;98632.16;2208575;79;23318;-86
2021/05/10 12:15:23;;;;;;;7.72;1.57;;;;;;;23.95;32.03;98620.92;2215897;79;22657;-85
2021/05/10 12:18:35;;;;;;;2.20;1.40;;;;;;;23.94;31.80;98617.98;2253066;79;22962;-86
2021/05/10 12:21:45;;;;;;;6.95;1.70;;;;;;;23.96;31.54;98618.00;2310343;77;22135;-89
2021/05/10 12:24:57;;;;;;;2.12;0.90;;;;;;;24.00;31.15;98614.25;2259509;79;23251;-88
2021/05/10 12:28:27;;;;;;;6.65;1.40;;;;;;;23.98;31.37;98611.05;2273392;77;24213;-88
2021/05/10 12:31:39;;;;;;;2.35;1.30;;;;;;;24.00;30.33;98615.59;2280115;77;22927;-85
2021/05/10 12:34:53;;;;;;;1.15;1.05;;;;;;;24.03;30.59;98608.34;2250628;79;22862;-85
2021/05/10 12:38:07;;;;;;;3.08;1.42;;;;;;;24.09;30.76;98607.28;2298776;77;23023;-86
2021/05/10 12:41:18;;;;;;;4.25;1.55;;;;;;;24.11;31.25;98600.58;2239573;79;27802;-84
2021/05/10 12:44:31;;;;;;;2.65;1.05;;;;;;;24.29;31.25;98594.40;2215989;79;23073;-86
2021/05/10 12:47:45;;;;;;;5.50;1.20;;;;;;;24.32;30.40;98591.20;2250397;79;22502;-88
2021/05/10 12:51:00;;;;;;;4.90;1.67;;;;;;;24.33;30.80;98582.93;2215656;79;23027;-89
2021/05/10 12:54:18;;;;;;;1.77;1.20;;;;;;;24.34;30.91;98584.53;2272730;77;23018;-85
2021/05/10 12:57:34;;;;;;;2.62;1.65;;;;;;;24.35;31.40;98592.02;2216312;79;22913;-89
2021/05/10 13:00:45;;;;;;;4.10;1.80;;;;;;;24.33;31.11;98587.48;2216564;79;22393;-88
2021/05/10 13:03:54;;;;;;;5.58;1.90;;;;;;;24.33;31.60;98591.49;2210699;79;23010;-85
2021/05/10 13:07:08;;;;;;;2.08;1.07;;;;;;;24.38;31.98;98594.14;2305735;77;22987;-88
2021/05/10 13:10:18;;;;;;;2.47;1.00;;;;;;;24.45;30.96;98595.20;2253066;79;22750;-83
2021/05/10 13:13:31;;;;;;;2.05;0.72;;;;;;;24.58;32.27;98598.62;2272796;77;22553;-81
2021/05/10 13:16:55;;;;;;;2.77;0.90;;;;;;;24.68;31.13;98595.36;2267341;78;22812;-85
2021/05/10 13:20:17;;;;;;;1.65;1.50;;;;;;;24.80;31.46;98599.08;2272951;77;23509;-89
2021/05/10 13:27:33;;;;;;;1.12;1.07;;;;;;;24.89;29.39;98585.38;2210295;79;23313;-86
2021/05/10 13:34:08;;;;;;;2.22;0.85;;;;;;;24.92;29.66;98580.00;2284652;76;28289;-86
2021/05/10 13:37:20;;;;;;;2.90;1.02;;;;;;;25.11;29.66;98576.17;2258248;79;23434;-86
2021/05/10 13:40:34;;;;;;;3.12;0.90;;;;;;;25.13;29.33;98569.45;2216029;79;22895;-87
2021/05/10 13:43:54;;;;;;;2.25;0.90;;;;;;;25.11;28.43;98571.62;2216058;79;22883;-86
2021/05/10 13:47:02;;;;;;;2.90;0.78;;;;;;;25.18;29.63;98565.42;2250741;79;23386;-86
2021/05/10 13:50:15;;;;;;;3.72;0.80;;;;;;;25.17;29.42;98565.16;2259335;79;22947;-86
2021/05/10 13:53:25;;;;;;;1.22;0.90;;;;;;;25.18;29.71;98568.64;2210403;79;22858;-86
2021/05/10 13:56:39;;;;;;;3.80;1.10;;;;;;;25.15;29.94;98570.55;2272579;77;23010;-86
2021/05/10 13:59:52;;;;;;;6.08;1.20;;;;;;;25.09;29.46;98557.70;2298171;76;23259;-86
2021/05/10 14:03:01;;;;;;;0.88;0.85;;;;;;;25.05;30.02;98563.34;2272600;77;22868;-87
2021/05/10 14:06:11;;;;;;;3.05;0.82;;;;;;;25.01;30.33;98559.59;2298857;77;22644;-88
2021/05/10 14:09:25;;;;;;;2.20;1.10;;;;;;;24.99;30.28;98559.08;2272852;77;23019;-86
2021/05/10 14:12:39;;;;;;;1.12;1.05;;;;;;;24.96;30.16;98560.95;2347340;76;23235;-86
2021/05/10 14:15:53;;;;;;;1.17;1.07;;;;;;;24.95;30.61;98562.84;2215885;79;23364;-85
2021/05/10 14:19:09;;;;;;;1.75;0.78;;;;;;;24.98;30.12;98557.48;2215920;79;22874;-88
2021/05/10 14:22:19;;;;;;;2.95;1.05;;;;;;;25.07;30.55;98555.05;2259539;79;22850;-87
2021/05/10 14:25:33;;;;;;;0.82;0.80;;;;;;;25.16;30.40;98550.70;2272629;77;22882;-86
2021/05/10 14:28:44;;;;;;;1.65;1.07;;;;;;;25.18;29.46;98553.36;2250777;79;22602;-84
2021/05/10 14:31:57;;;;;;;2.00;0.93;;;;;;;25.17;29.86;98549.62;2184167;80;23035;-87
2021/05/10 14:35:07;;;;;;;1.90;1.20;;;;;;;25.22;29.55;98551.71;2205415;79;23024;-84
2021/05/10 14:38:17;;;;;;;1.55;0.90;;;;;;;25.30;29.32;98542.83;2266930;77;22856;-85
2021/05/10 14:41:30;;;;;;;1.07;0.82;;;;;;;25.37;30.04;98539.30;2210933;79;22857;-84
2021/05/10 14:44:44;;;;;;;2.00;1.20;;;;;;;25.38;29.72;98542.23;2209648;79;23411;-83
2021/05/10 14:47:59;;;;;;;1.22;0.98;;;;;;;25.35;29.72;98545.48;2272566;77;23006;-83
2021/05/10 14:51:08;;;;;;;3.30;1.10;;;;;;;25.32;30.22;98542.00;2183896;79;28488;-88
2021/05/10 14:54:23;;;;;;;1.57;0.98;;;;;;;25.46;30.16;98545.12;2203342;79;22942;-83
2021/05/10 14:57:35;;;;;;;2.77;1.45;;;;;;;25.46;29.94;98546.45;2235911;79;22871;-88
2021/05/10 15:00:45;;;;;;;0.98;0.80;;;;;;;25.50;30.28;98536.76;2250669;79;23023;-85
2021/05/10 15:03:57;;;;;;;1.95;1.05;;;;;;;25.48;30.53;98534.91;2305078;76;20151;-83
2021/05/10 15:07:12;;;;;;;5.08;1.77;;;;;;;25.46;28.80;98541.09;2272683;77;23273;-82
2021/05/10 15:10:23;;;;;;;1.70;1.32;;;;;;;25.43;29.02;98541.66;2250534;79;22908;-85
2021/05/10 15:13:38;;;;;;;1.87;1.05;;;;;;;25.43;28.94;98547.03;2272811;77;23005;-82
2021/05/10 15:16:51;;;;;;;1.40;0.88;;;;;;;25.44;29.46;98543.27;2250444;79;22880;-81
2021/05/10 15:20:02;;;;;;;3.62;1.20;;;;;;;25.41;28.87;98532.28;2250648;79;22856;-82